Volcano, Hawaii
Current Conditions -  °F | °C
As of 5:53 PM on Saturday 24 Jan 2015 (Local Time) from PHTO Reporting Station
Overcast Overcast  
Wind Chill: 76°   Ceiling: 1900
Heat Index: 76°   Visibility: 10mi
Dew Point: 69°   Wind: 12mph
Humidity: 79%   Direction: 20°NNE
Pressure: 29.99"   Gusts: NA
Location:  19.42°N, 155.22°W
Report Text: PHTO 250353Z 02010KT 10SM OVC019 24/21 A2999 RMK AO2 SLP153 T02440206 $
Loading
Personal Weather Stations






























Interactive Weather Map New forecast layout! Learn more

10-Day Weather Forecast

Advertisements
Track Severe Weather on mobile